createdAt,value
2018-12-07T00:00:28.885Z,9.27
2018-12-07T00:02:57.476Z,10.03
2018-12-07T00:05:26.079Z,7.67
2018-12-07T00:07:55.843Z,8.97
2018-12-07T00:10:24.398Z,8.13
2018-12-07T00:12:52.995Z,8.50
2018-12-07T00:15:21.539Z,8.57
2018-12-07T00:17:50.076Z,8.67
2018-12-07T00:20:18.739Z,8.13
2018-12-07T00:22:47.295Z,6.37
2018-12-07T00:25:15.856Z,8.60
2018-12-07T00:27:44.469Z,6.80
2018-12-07T00:30:13.153Z,6.53
2018-12-07T00:32:41.675Z,8.13
2018-12-07T00:35:10.271Z,6.70
2018-12-07T00:37:38.804Z,7.00
2018-12-07T00:40:07.801Z,6.90
2018-12-07T00:42:36.363Z,5.10
2018-12-07T00:45:06.087Z,5.93
2018-12-07T00:47:34.640Z,7.83
2018-12-07T00:50:03.359Z,4.47
2018-12-07T00:52:31.993Z,5.40
2018-12-07T00:55:00.523Z,4.90
2018-12-07T00:57:29.126Z,5.80
2018-12-07T00:59:57.737Z,4.63
2018-12-07T01:02:26.401Z,7.33
2018-12-07T01:04:54.953Z,4.23
2018-12-07T01:07:23.520Z,5.90
2018-12-07T01:09:52.085Z,4.20
2018-12-07T01:12:20.627Z,5.90
2018-12-07T01:14:49.217Z,4.97
2018-12-07T01:17:18.028Z,6.13
2018-12-07T01:19:46.596Z,5.40
2018-12-07T01:22:15.128Z,4.50
2018-12-07T01:24:43.730Z,3.80
2018-12-07T01:27:12.327Z,4.53
2018-12-07T01:29:41.860Z,3.17
2018-12-07T01:32:10.537Z,3.90
2018-12-07T01:34:39.090Z,4.30
2018-12-07T01:37:07.637Z,4.87
2018-12-07T01:39:36.196Z,3.77
2018-12-07T01:42:04.905Z,3.63
2018-12-07T01:44:33.590Z,5.67
2018-12-07T01:47:02.123Z,4.00
2018-12-07T01:49:30.683Z,3.70
2018-12-07T01:51:59.237Z,4.13
2018-12-07T01:54:28.166Z,3.43
2018-12-07T01:56:56.744Z,5.00
2018-12-07T01:59:25.302Z,3.20
2018-12-07T02:01:53.862Z,3.83
2018-12-07T02:04:22.385Z,3.50
2018-12-07T02:06:50.953Z,3.63
2018-12-07T02:09:19.506Z,5.03
2018-12-07T02:11:48.139Z,4.17
2018-12-07T02:14:16.709Z,6.13
2018-12-07T02:16:45.260Z,4.53
2018-12-07T02:19:13.907Z,4.47
2018-12-07T02:21:42.424Z,3.57
2018-12-07T02:24:11.003Z,4.07
2018-12-07T02:26:39.588Z,2.50
2018-12-07T02:29:08.367Z,2.60
2018-12-07T02:31:36.898Z,2.60
2018-12-07T02:34:05.489Z,3.10
2018-12-07T02:36:34.046Z,3.93
2018-12-07T02:39:02.703Z,4.07
2018-12-07T02:41:31.237Z,2.93
2018-12-07T02:43:59.763Z,2.90
2018-12-07T02:46:28.376Z,2.83
2018-12-07T02:48:56.935Z,2.80
2018-12-07T02:51:25.540Z,2.53
2018-12-07T02:53:54.111Z,4.03
2018-12-07T02:56:22.664Z,3.00
2018-12-07T02:58:51.207Z,3.50
2018-12-07T03:01:19.757Z,2.73
2018-12-07T03:03:48.320Z,2.77
2018-12-07T03:06:16.922Z,2.93
2018-12-07T03:08:45.447Z,3.53
2018-12-07T03:11:14.007Z,3.67
2018-12-07T03:13:42.567Z,2.17
2018-12-07T03:16:11.109Z,2.50
2018-12-07T03:18:39.697Z,2.27
2018-12-07T03:21:08.264Z,2.73
2018-12-07T03:23:39.895Z,2.27
2018-12-07T03:26:08.498Z,3.10
2018-12-07T03:28:37.000Z,1.60
2018-12-07T03:31:05.549Z,2.40
2018-12-07T03:33:34.151Z,3.53
2018-12-07T03:36:02.836Z,2.20
2018-12-07T03:38:34.474Z,2.57
2018-12-07T03:41:03.007Z,2.13
2018-12-07T03:43:31.601Z,2.70
2018-12-07T03:46:00.135Z,2.77
2018-12-07T03:48:28.743Z,2.70
2018-12-07T03:50:57.300Z,3.10
2018-12-07T03:53:26.385Z,2.83
2018-12-07T03:55:54.927Z,1.90
2018-12-07T03:58:23.459Z,2.67
2018-12-07T04:00:51.995Z,2.07
2018-12-07T04:03:20.525Z,2.03
2018-12-07T04:05:49.101Z,3.13
2018-12-07T04:08:17.794Z,2.73
2018-12-07T04:10:47.139Z,2.07
2018-12-07T04:13:15.738Z,3.23
2018-12-07T04:15:44.283Z,2.60
2018-12-07T04:18:12.819Z,3.10
2018-12-07T04:20:41.328Z,3.67
2018-12-07T04:23:09.863Z,2.03
2018-12-07T04:25:38.396Z,1.77
2018-12-07T04:28:06.947Z,2.87
2018-12-07T04:30:35.487Z,1.80
2018-12-07T04:33:04.024Z,2.37
2018-12-07T04:35:32.616Z,1.30
2018-12-07T04:38:01.148Z,1.83
2018-12-07T04:40:30.293Z,2.10
2018-12-07T04:42:58.843Z,1.57
2018-12-07T04:45:27.625Z,1.93
2018-12-07T04:47:56.151Z,1.90
2018-12-07T04:50:24.728Z,1.47
2018-12-07T04:52:53.275Z,1.40
2018-12-07T04:55:21.819Z,2.10
2018-12-07T04:57:50.352Z,1.20
2018-12-07T05:00:18.941Z,2.60
2018-12-07T05:02:47.479Z,2.90
2018-12-07T05:05:16.046Z,1.67
2018-12-07T05:07:44.605Z,1.83
2018-12-07T05:10:13.446Z,1.60
2018-12-07T05:12:42.205Z,2.13
2018-12-07T05:15:10.804Z,2.30
2018-12-07T05:17:39.383Z,1.50
2018-12-07T05:20:08.418Z,1.33
2018-12-07T05:22:37.078Z,2.57
2018-12-07T05:25:05.859Z,1.40
2018-12-07T05:27:34.380Z,1.70
2018-12-07T05:30:02.986Z,1.40
2018-12-07T05:32:31.567Z,1.83
2018-12-07T05:35:00.154Z,1.33
2018-12-07T05:37:28.868Z,1.10
2018-12-07T05:39:57.436Z,1.63
2018-12-07T05:42:26.007Z,1.50
2018-12-07T05:44:54.547Z,0.93
2018-12-07T05:47:23.190Z,1.70
2018-12-07T05:49:51.769Z,2.07
2018-12-07T05:52:20.393Z,1.30
2018-12-07T05:54:48.935Z,4.07
2018-12-07T05:57:17.484Z,1.00
2018-12-07T05:59:46.059Z,2.90
2018-12-07T06:02:14.631Z,2.83
2018-12-07T06:04:43.227Z,2.63
2018-12-07T06:07:12.859Z,1.23
2018-12-07T06:09:41.433Z,1.00
2018-12-07T06:12:10.031Z,1.77
2018-12-07T06:14:38.704Z,1.20
2018-12-07T06:17:07.456Z,2.27
2018-12-07T06:19:36.020Z,2.43
2018-12-07T06:23:33.994Z,1.50
2018-12-07T06:26:02.552Z,3.10
2018-12-07T06:28:31.139Z,1.43
2018-12-07T06:30:59.762Z,2.10
2018-12-07T06:33:28.453Z,1.43
2018-12-07T06:35:57.150Z,1.43
2018-12-07T06:38:25.723Z,2.00
2018-12-07T06:40:54.243Z,1.07
2018-12-07T06:43:22.791Z,1.27
2018-12-07T06:45:51.318Z,4.87
2018-12-07T06:48:19.902Z,0.87
2018-12-07T06:50:48.444Z,1.83
2018-12-07T06:53:17.048Z,1.80
2018-12-07T06:55:45.609Z,0.97
2018-12-07T06:58:14.136Z,2.50
2018-12-07T07:00:42.651Z,1.57
2018-12-07T07:03:11.147Z,0.90
2018-12-07T07:05:39.704Z,0.90
2018-12-07T07:08:08.291Z,0.77
2018-12-07T07:10:36.878Z,1.07
2018-12-07T07:13:05.456Z,1.80
2018-12-07T07:15:34.013Z,1.20
2018-12-07T07:18:02.583Z,1.20
2018-12-07T07:20:31.252Z,0.83
2018-12-07T07:22:59.836Z,1.20
2018-12-07T07:25:28.379Z,0.90
2018-12-07T07:27:56.930Z,1.00
2018-12-07T07:30:25.527Z,1.10
2018-12-07T07:32:54.048Z,1.73
2018-12-07T07:35:22.604Z,1.33
2018-12-07T07:37:51.161Z,0.70
2018-12-07T07:40:19.747Z,0.80
2018-12-07T07:42:48.277Z,2.60
2018-12-07T07:45:16.855Z,1.40
2018-12-07T07:47:45.443Z,1.13
2018-12-07T07:50:14.033Z,1.60
2018-12-07T07:52:42.579Z,1.47
2018-12-07T07:55:11.092Z,1.17
2018-12-07T07:57:39.627Z,1.37
2018-12-07T08:00:08.534Z,3.90
2018-12-07T08:02:37.053Z,10.60
2018-12-07T08:05:05.867Z,57.03
2018-12-07T08:07:34.464Z,98.73
2018-12-07T08:10:03.023Z,117.67
2018-12-07T08:12:31.717Z,111.07
2018-12-07T08:15:00.303Z,135.37
2018-12-07T08:17:28.849Z,146.73
2018-12-07T08:19:57.421Z,147.50
2018-12-07T08:22:26.187Z,165.27
2018-12-07T08:24:54.752Z,178.30
2018-12-07T08:27:23.397Z,187.67
2018-12-07T08:29:52.002Z,192.40
2018-12-07T08:32:21.328Z,192.07
2018-12-07T08:34:50.161Z,187.83
2018-12-07T08:37:18.883Z,194.00
2018-12-07T08:39:47.462Z,189.80
2018-12-07T08:42:16.012Z,193.10
2018-12-07T08:44:44.547Z,189.67
2018-12-07T08:47:13.111Z,191.10
2018-12-07T08:49:46.789Z,179.50
2018-12-07T08:52:15.356Z,185.00
2018-12-07T08:54:43.904Z,173.67
2018-12-07T08:57:12.495Z,182.23
2018-12-07T08:59:41.095Z,169.70
2018-12-07T09:02:09.818Z,167.67
2018-12-07T09:04:38.515Z,160.03
2018-12-07T09:07:07.320Z,146.43
2018-12-07T09:09:35.855Z,150.87
2018-12-07T09:12:04.658Z,145.73
2018-12-07T09:14:33.215Z,143.97
2018-12-07T09:17:01.799Z,131.00
2018-12-07T09:19:30.495Z,127.47
2018-12-07T09:21:59.071Z,127.70
2018-12-07T09:24:27.743Z,117.63
2018-12-07T09:26:56.315Z,119.70
2018-12-07T09:29:24.974Z,118.50
2018-12-07T09:31:53.619Z,112.77
2018-12-07T09:34:22.207Z,109.70
2018-12-07T09:36:50.752Z,104.93
2018-12-07T09:39:19.360Z,98.93
2018-12-07T09:41:47.935Z,94.33
2018-12-07T09:44:16.536Z,93.87
2018-12-07T09:46:45.231Z,90.60
2018-12-07T09:49:13.775Z,84.93
2018-12-07T09:51:42.475Z,77.77
2018-12-07T09:54:11.187Z,80.80
2018-12-07T09:56:39.747Z,73.50
2018-12-07T09:59:08.315Z,76.07
2018-12-07T10:01:36.920Z,64.50
2018-12-07T10:04:05.503Z,63.70
2018-12-07T10:06:34.052Z,59.67
2018-12-07T10:09:02.664Z,54.87
2018-12-07T10:11:31.187Z,56.43
2018-12-07T10:13:59.777Z,51.27
2018-12-07T10:16:28.468Z,51.43
2018-12-07T10:18:57.007Z,48.83
2018-12-07T10:21:25.613Z,45.73
2018-12-07T10:23:54.152Z,47.97
2018-12-07T10:26:22.679Z,43.80
2018-12-07T10:28:51.233Z,42.07
2018-12-07T10:31:19.805Z,45.70
2018-12-07T10:33:48.371Z,39.53
2018-12-07T10:36:16.932Z,39.90
2018-12-07T10:38:45.487Z,33.03
2018-12-07T10:41:14.071Z,35.27
2018-12-07T10:43:42.661Z,36.40
2018-12-07T10:46:11.269Z,31.27
2018-12-07T10:48:39.907Z,34.77
2018-12-07T10:51:08.479Z,30.27
2018-12-07T10:53:37.013Z,32.97
2018-12-07T10:56:05.693Z,30.47
2018-12-07T10:58:34.420Z,28.90
2018-12-07T11:01:08.264Z,26.90
2018-12-07T11:03:42.176Z,24.40
2018-12-07T11:06:15.819Z,25.97
2018-12-07T11:09:48.876Z,24.87
2018-12-07T11:12:22.515Z,21.73
2018-12-07T11:14:56.470Z,22.57
2018-12-07T11:17:30.329Z,21.73
2018-12-07T11:20:04.087Z,22.17
2018-12-07T11:22:37.887Z,21.17
2018-12-07T11:25:11.751Z,17.90
2018-12-07T11:27:45.517Z,17.80
2018-12-07T11:30:19.327Z,20.63
2018-12-07T11:32:53.145Z,18.40
2018-12-07T11:35:25.929Z,19.33
2018-12-07T11:37:54.488Z,17.20
2018-12-07T11:40:23.032Z,14.13
2018-12-07T11:42:51.662Z,16.30
2018-12-07T11:45:20.288Z,14.70
2018-12-07T11:47:48.815Z,13.30
2018-12-07T11:50:17.383Z,13.63
2018-12-07T11:52:45.963Z,14.13
2018-12-07T11:55:14.515Z,13.63
2018-12-07T11:59:12.471Z,13.17
2018-12-07T12:01:44.668Z,13.67
2018-12-07T12:04:11.683Z,11.70
2018-12-07T12:06:40.224Z,10.47
2018-12-07T12:09:09.055Z,10.37
2018-12-07T12:11:37.639Z,10.43
2018-12-07T12:14:06.199Z,10.67
2018-12-07T12:16:34.738Z,9.33
2018-12-07T12:19:03.326Z,9.10
2018-12-07T12:21:31.915Z,12.97
2018-12-07T12:24:00.518Z,9.43
2018-12-07T12:26:29.077Z,9.00
2018-12-07T12:28:57.635Z,8.07
2018-12-07T12:31:26.223Z,9.77
2018-12-07T12:33:54.787Z,7.20
2018-12-07T12:36:23.341Z,8.20
2018-12-07T12:38:51.885Z,9.43
2018-12-07T12:41:20.475Z,8.83
2018-12-07T12:43:49.016Z,8.37
2018-12-07T12:46:17.619Z,7.37
2018-12-07T12:48:46.207Z,8.23
2018-12-07T12:51:14.823Z,6.30
2018-12-07T12:53:43.423Z,5.73
2018-12-07T12:56:11.987Z,5.83
2018-12-07T12:58:40.595Z,6.50
2018-12-07T13:01:09.115Z,6.77
2018-12-07T13:03:37.663Z,5.27
2018-12-07T13:06:06.246Z,6.60
2018-12-07T13:08:34.779Z,5.57
2018-12-07T13:11:03.396Z,5.50
2018-12-07T13:13:32.007Z,6.20
2018-12-07T13:16:00.580Z,5.23
2018-12-07T13:18:29.115Z,7.00
2018-12-07T13:20:57.686Z,6.77
2018-12-07T13:23:26.224Z,6.07
2018-12-07T13:25:55.266Z,5.37
2018-12-07T13:28:23.871Z,5.83
2018-12-07T13:30:53.517Z,5.30
2018-12-07T13:33:22.130Z,5.33
2018-12-07T13:35:50.774Z,7.40
2018-12-07T13:38:19.346Z,4.70
2018-12-07T13:40:48.086Z,5.60
2018-12-07T13:43:17.249Z,4.00
2018-12-07T13:45:45.995Z,4.90
2018-12-07T13:48:15.018Z,4.00
2018-12-07T13:50:43.874Z,5.30
2018-12-07T13:53:12.504Z,3.47
2018-12-07T13:55:41.583Z,4.93
2018-12-07T13:58:10.239Z,4.03
2018-12-07T14:00:39.130Z,3.93
2018-12-07T14:03:07.969Z,2.63
2018-12-07T14:05:36.723Z,3.00
2018-12-07T14:08:05.414Z,3.33
2018-12-07T14:10:34.133Z,3.50
2018-12-07T14:13:02.854Z,3.90
2018-12-07T14:15:31.855Z,4.07
2018-12-07T14:18:00.500Z,4.77
2018-12-07T14:20:29.181Z,3.87
2018-12-07T14:22:57.931Z,4.40
2018-12-07T14:25:26.630Z,3.67
2018-12-07T14:27:55.281Z,3.03
2018-12-07T14:30:23.889Z,2.73
2018-12-07T14:32:52.628Z,2.87
2018-12-07T14:35:21.503Z,2.70
2018-12-07T14:37:50.095Z,3.07
2018-12-07T14:40:18.796Z,2.43
2018-12-07T14:42:47.434Z,2.80
2018-12-07T14:45:16.216Z,4.50
2018-12-07T14:47:45.191Z,4.10
2018-12-07T14:50:14.137Z,3.73
2018-12-07T14:52:42.808Z,2.83
2018-12-07T14:55:11.586Z,2.07
2018-12-07T14:57:40.396Z,3.33
2018-12-07T15:00:09.444Z,2.90
2018-12-07T15:02:38.229Z,3.20
2018-12-07T15:05:07.139Z,2.37
2018-12-07T15:07:35.838Z,3.10
2018-12-07T15:10:05.591Z,2.20
2018-12-07T15:12:34.283Z,3.63
2018-12-07T15:15:03.073Z,2.43
2018-12-07T15:17:31.872Z,4.43
2018-12-07T15:20:00.950Z,3.30
2018-12-07T15:22:30.005Z,2.53
2018-12-07T15:24:58.748Z,2.83
2018-12-07T15:27:27.430Z,2.20
2018-12-07T15:29:56.302Z,1.70
2018-12-07T15:32:25.014Z,2.37
2018-12-07T15:34:53.620Z,2.13
2018-12-07T15:37:22.348Z,2.30
2018-12-07T15:39:50.962Z,2.40
2018-12-07T15:42:19.683Z,2.27
2018-12-07T15:44:48.318Z,2.13
2018-12-07T15:47:16.986Z,1.87
2018-12-07T15:49:46.460Z,2.87
2018-12-07T15:52:16.441Z,1.80
2018-12-07T15:54:45.278Z,2.37
2018-12-07T15:57:14.028Z,2.07
2018-12-07T15:59:42.713Z,2.03
2018-12-07T16:02:11.418Z,2.10
2018-12-07T16:04:40.081Z,2.23
2018-12-07T16:07:08.967Z,3.63
2018-12-07T16:09:37.883Z,2.30
2018-12-07T16:12:06.755Z,1.80
2018-12-07T16:14:35.365Z,3.00
2018-12-07T16:17:04.537Z,2.97
2018-12-07T16:19:33.147Z,2.37
2018-12-07T16:22:01.895Z,3.03
2018-12-07T16:24:31.344Z,2.33
2018-12-07T16:26:59.983Z,2.80
2018-12-07T16:29:28.516Z,2.80
2018-12-07T16:31:57.187Z,2.30
2018-12-07T16:34:25.837Z,2.23
2018-12-07T16:36:54.867Z,2.17
2018-12-07T16:39:23.798Z,3.00
2018-12-07T16:41:52.516Z,2.40
2018-12-07T16:44:21.470Z,2.10
2018-12-07T16:46:50.130Z,2.87
2018-12-07T16:49:18.791Z,1.20
2018-12-07T16:51:47.524Z,2.27
2018-12-07T16:54:16.229Z,1.63
2018-12-07T16:56:45.119Z,2.30
2018-12-07T16:59:13.909Z,1.70
2018-12-07T17:01:42.742Z,2.10
2018-12-07T17:04:11.339Z,1.97
2018-12-07T17:06:40.233Z,1.53
2018-12-07T17:09:09.047Z,1.83
2018-12-07T17:11:37.805Z,3.90
2018-12-07T17:14:06.748Z,2.53
2018-12-07T17:16:35.710Z,3.17
2018-12-07T17:19:04.434Z,3.17
2018-12-07T17:24:08.039Z,19.00
2018-12-07T17:26:36.627Z,20.90
2018-12-07T17:29:05.277Z,15.20
2018-12-07T17:31:34.179Z,18.03
2018-12-07T17:34:03.149Z,20.93
2018-12-07T17:36:32.015Z,32.23
2018-12-07T17:39:00.913Z,51.27
2018-12-07T17:41:30.108Z,57.97
2018-12-07T17:43:58.864Z,62.47
2018-12-07T17:46:27.746Z,60.47
2018-12-07T17:48:56.574Z,58.30
2018-12-07T17:51:25.265Z,54.43
2018-12-07T17:53:53.896Z,57.23
2018-12-07T17:56:22.424Z,46.67
2018-12-07T17:58:51.171Z,52.17
2018-12-07T18:01:20.051Z,50.83
2018-12-07T18:03:48.600Z,45.43
2018-12-07T18:06:17.431Z,44.93
2018-12-07T18:08:46.040Z,45.77
2018-12-07T18:11:14.804Z,41.30
2018-12-07T18:13:43.530Z,41.83
2018-12-07T18:16:12.398Z,40.00
2018-12-07T18:18:41.213Z,32.20
2018-12-07T18:21:10.157Z,34.57
2018-12-07T18:23:39.049Z,34.47
2018-12-07T18:26:07.819Z,27.07
2018-12-07T18:28:36.931Z,33.97
2018-12-07T18:31:05.742Z,26.60
2018-12-07T18:33:34.393Z,26.40
2018-12-07T18:36:03.405Z,27.03
2018-12-07T18:38:32.195Z,24.87
2018-12-07T18:41:00.936Z,30.50
2018-12-07T18:43:29.625Z,18.93
2018-12-07T18:45:58.196Z,25.47
2018-12-07T18:49:58.362Z,22.33
2018-12-07T18:52:27.714Z,21.23
2018-12-07T18:54:56.652Z,19.43
2018-12-07T18:57:25.539Z,20.70
2018-12-07T18:59:54.323Z,20.40
2018-12-07T19:02:23.078Z,19.93
2018-12-07T19:04:51.918Z,16.27
2018-12-07T19:07:20.697Z,16.63
2018-12-07T19:09:49.565Z,16.10
2018-12-07T19:12:18.546Z,16.23
2018-12-07T19:14:47.232Z,16.87
2018-12-07T19:17:16.095Z,11.83
2018-12-07T19:19:44.943Z,11.87
2018-12-07T19:22:13.648Z,13.83
2018-12-07T19:24:42.486Z,13.87
2018-12-07T19:27:11.548Z,14.40
2018-12-07T19:29:40.531Z,13.10
2018-12-07T19:32:09.455Z,11.37
2018-12-07T19:34:38.271Z,12.30
2018-12-07T19:37:07.076Z,13.47
2018-12-07T19:39:35.816Z,15.10
2018-12-07T19:42:04.720Z,14.57
2018-12-07T19:44:33.432Z,9.93
2018-12-07T19:47:02.136Z,8.43
2018-12-07T19:49:30.928Z,10.20
2018-12-07T19:51:59.769Z,8.50
2018-12-07T19:54:28.563Z,8.97
2018-12-07T19:56:57.374Z,10.17
2018-12-07T19:59:26.137Z,7.03
2018-12-07T20:01:55.069Z,9.47
2018-12-07T20:04:24.030Z,7.60
2018-12-07T20:06:52.886Z,8.13
2018-12-07T20:09:21.520Z,8.20
2018-12-07T20:11:50.165Z,8.53
2018-12-07T20:14:19.031Z,6.67
2018-12-07T20:16:48.078Z,7.00
2018-12-07T20:19:16.844Z,6.47
2018-12-07T20:21:46.312Z,7.20
2018-12-07T20:24:16.080Z,10.10
2018-12-07T20:26:44.912Z,7.20
2018-12-07T20:29:13.856Z,7.00
2018-12-07T20:31:43.371Z,6.30
2018-12-07T20:34:14.512Z,6.93
2018-12-07T20:36:44.863Z,6.10
2018-12-07T20:39:15.256Z,4.07
2018-12-07T20:41:45.563Z,5.40
2018-12-07T20:44:18.080Z,6.27
2018-12-07T20:46:48.170Z,5.97
2018-12-07T20:49:17.982Z,5.03
2018-12-07T20:51:47.722Z,5.27
2018-12-07T20:54:19.616Z,5.13
2018-12-07T20:56:50.384Z,3.47
2018-12-07T20:59:21.328Z,6.10
2018-12-07T21:01:51.877Z,6.87
2018-12-07T21:04:39.062Z,5.37
2018-12-07T21:07:56.750Z,6.17
2018-12-07T21:11:03.932Z,5.60
2018-12-07T21:14:38.805Z,4.33
2018-12-07T21:17:14.928Z,6.13
2018-12-07T21:19:57.712Z,4.47
2018-12-07T21:22:26.854Z,4.70
2018-12-07T21:24:55.784Z,5.77
2018-12-07T21:27:24.628Z,5.10
2018-12-07T21:32:51.987Z,5.13
2018-12-07T21:35:20.579Z,3.37
2018-12-07T21:37:49.123Z,3.60
2018-12-07T21:40:21.834Z,4.50
2018-12-07T21:42:50.529Z,4.97
2018-12-07T21:45:19.252Z,4.03
2018-12-07T21:48:53.825Z,5.97
2018-12-07T21:52:00.003Z,3.37
2018-12-07T21:54:28.743Z,3.73
2018-12-07T21:56:57.391Z,7.40
2018-12-07T21:59:26.374Z,3.17
2018-12-07T22:01:55.322Z,2.33
2018-12-07T22:04:24.367Z,4.00
2018-12-07T22:06:53.178Z,4.43
2018-12-07T22:09:22.246Z,2.73
2018-12-07T22:11:51.508Z,3.70
2018-12-07T22:14:20.414Z,3.10
2018-12-07T22:16:48.945Z,3.10
2018-12-07T22:19:17.492Z,3.03
2018-12-07T22:21:46.250Z,3.63
2018-12-07T22:24:14.987Z,5.40
2018-12-07T22:26:43.474Z,3.43
2018-12-07T22:29:12.304Z,3.47
2018-12-07T22:31:41.139Z,4.77
2018-12-07T22:34:09.701Z,2.30
2018-12-07T22:36:38.698Z,2.67
2018-12-07T22:39:08.902Z,2.77
2018-12-07T22:41:38.047Z,3.43
2018-12-07T22:44:06.858Z,2.23
2018-12-07T22:46:35.705Z,1.80
2018-12-07T22:49:04.856Z,3.10
2018-12-07T22:51:33.511Z,2.57
2018-12-07T22:54:02.007Z,1.50
2018-12-07T22:56:30.547Z,2.37
2018-12-07T22:58:59.099Z,1.77
2018-12-07T23:01:27.985Z,3.43
2018-12-07T23:03:56.502Z,1.93
2018-12-07T23:06:24.997Z,2.83
2018-12-07T23:08:53.516Z,2.03
2018-12-07T23:11:22.027Z,3.57
2018-12-07T23:13:50.567Z,1.33
2018-12-07T23:16:19.202Z,1.67
2018-12-07T23:18:47.695Z,2.17
2018-12-07T23:21:16.419Z,3.23
2018-12-07T23:23:44.894Z,2.47
2018-12-07T23:26:13.438Z,3.10
2018-12-07T23:28:41.928Z,2.40
2018-12-07T23:31:10.426Z,2.37
2018-12-07T23:33:38.983Z,2.90
2018-12-07T23:36:07.491Z,1.27
2018-12-07T23:38:36.024Z,2.30
2018-12-07T23:41:04.664Z,1.97
2018-12-07T23:43:33.182Z,4.00
2018-12-07T23:46:01.679Z,1.73
2018-12-07T23:48:30.284Z,1.50
2018-12-07T23:50:59.028Z,2.20
2018-12-07T23:53:27.677Z,1.83
2018-12-07T23:55:56.173Z,1.77
2018-12-07T23:58:24.802Z,1.33
